Time;durP1;ratioP1;P1;durP2;ratioP2;P2;SDS_P1;SDS_P2;PMS_P1;PMS_P2;Temp;Humidity;BMP_temperature;BMP_pressure;BME280_temperature;BME280_humidity;BME280_pressure;Samples;Min_cycle;Max_cycle;Signal;HPM_P1;HPM_P2
2022/10/06 00:01:30;;;;;;;10.60;3.80;;;;;;;12.77;63.45;99650.95;105975;1276;99323;-66
2022/10/06 00:03:59;;;;;;;9.60;3.50;;;;;;;12.75;63.49;99651.63;105961;1276;113386;-67
2022/10/06 00:06:28;;;;;;;6.80;3.90;;;;;;;12.75;63.48;99652.02;105970;1276;96658;-66
2022/10/06 00:08:57;;;;;;;8.00;3.30;;;;;;;12.74;63.54;99652.61;105936;1276;108375;-67
2022/10/06 00:11:25;;;;;;;10.70;3.80;;;;;;;12.73;63.43;99655.92;105939;1276;99213;-67
2022/10/06 00:13:53;;;;;;;10.10;4.20;;;;;;;12.71;63.52;99657.64;106008;1276;100003;-66
2022/10/06 00:16:22;;;;;;;10.20;3.50;;;;;;;12.70;63.51;99656.46;105875;1277;113401;-67
2022/10/06 00:18:52;;;;;;;11.10;3.70;;;;;;;12.67;63.62;99657.70;105988;1276;99287;-67
2022/10/06 00:21:20;;;;;;;7.00;3.30;;;;;;;12.65;63.56;99655.54;106120;1276;108338;-65
2022/10/06 00:23:48;;;;;;;10.40;3.50;;;;;;;12.64;63.60;99656.14;106110;1276;99299;-67
2022/10/06 00:26:16;;;;;;;11.50;3.90;;;;;;;12.63;63.54;99660.52;106047;1275;99432;-68
2022/10/06 00:28:47;;;;;;;7.20;3.10;;;;;;;12.63;63.63;99661.96;106026;1276;113628;-68
2022/10/06 00:31:18;;;;;;;8.70;3.70;;;;;;;12.61;63.54;99660.48;106067;1276;99228;-70
2022/10/06 00:33:49;;;;;;;8.50;3.40;;;;;;;12.58;63.49;99659.62;106010;1276;108127;-67
2022/10/06 00:36:20;;;;;;;11.00;3.80;;;;;;;12.56;63.44;99666.35;106084;1274;99323;-66
2022/10/06 00:38:47;;;;;;;10.00;3.40;;;;;;;12.55;63.54;99666.95;106099;1274;97763;-67
2022/10/06 00:41:18;;;;;;;9.40;3.50;;;;;;;12.54;63.56;99669.01;106044;1274;113289;-67
2022/10/06 00:43:55;;;;;;;11.70;3.30;;;;;;;12.53;63.35;99669.76;106002;1274;99385;-68
2022/10/06 00:46:44;;;;;;;11.10;3.50;;;;;;;12.52;63.47;99673.55;106014;1274;108810;-67
2022/10/06 00:49:23;;;;;;;8.90;3.30;;;;;;;12.51;63.57;99669.17;105996;1274;99233;-68
2022/10/06 00:52:01;;;;;;;9.40;3.40;;;;;;;12.49;63.58;99672.67;106033;1274;96638;-69
2022/10/06 00:54:32;;;;;;;10.60;3.40;;;;;;;12.47;63.60;99669.33;105979;1275;113401;-68
2022/10/06 00:57:03;;;;;;;11.00;3.60;;;;;;;12.44;63.57;99665.20;106009;1274;99428;-67
2022/10/06 00:59:32;;;;;;;14.70;4.20;;;;;;;12.43;63.55;99670.31;105996;1274;108252;-68
2022/10/06 01:02:03;;;;;;;9.10;3.10;;;;;;;12.41;63.50;99667.57;106035;1274;97635;-67
2022/10/06 01:04:37;;;;;;;8.50;3.50;;;;;;;12.39;63.59;99670.61;106093;1274;99229;-67
2022/10/06 01:07:07;;;;;;;6.80;3.70;;;;;;;12.36;63.56;99672.52;106043;1276;112802;-67
2022/10/06 01:09:36;;;;;;;7.30;3.50;;;;;;;12.34;63.46;99673.94;106037;1274;99194;-69
2022/10/06 01:12:07;;;;;;;6.70;3.10;;;;;;;12.32;63.52;99672.31;106090;1274;108424;-68
2022/10/06 01:14:38;;;;;;;8.60;3.80;;;;;;;12.29;63.57;99670.19;106075;1274;99430;-67
2022/10/06 01:17:11;;;;;;;7.10;3.30;;;;;;;12.27;63.61;99672.60;106127;1274;96570;-67
2022/10/06 01:20:13;;;;;;;7.80;3.60;;;;;;;12.26;63.64;99674.13;106065;1274;113143;-68
2022/10/06 01:22:46;;;;;;;8.70;3.90;;;;;;;12.25;63.62;99673.17;105998;1274;97039;-68
2022/10/06 01:25:17;;;;;;;6.60;3.50;;;;;;;12.24;63.71;99671.07;105999;1274;107752;-68
2022/10/06 01:27:52;;;;;;;12.10;3.70;;;;;;;12.23;63.68;99665.98;105973;1274;99118;-67
2022/10/06 01:30:51;;;;;;;10.40;4.00;;;;;;;12.21;63.70;99669.13;106041;1274;99306;-68
2022/10/06 01:33:21;;;;;;;9.60;3.70;;;;;;;12.20;63.64;99663.15;106113;1274;112770;-67
2022/10/06 01:35:51;;;;;;;10.40;3.40;;;;;;;12.19;63.63;99664.48;106026;1276;99954;-69
2022/10/06 01:38:20;;;;;;;12.90;3.70;;;;;;;12.18;63.69;99661.50;105955;1276;108353;-66
2022/10/06 01:40:52;;;;;;;7.80;3.50;;;;;;;12.18;63.71;99658.89;105942;1276;99311;-68
2022/10/06 01:43:20;;;;;;;6.90;3.40;;;;;;;12.17;63.68;99660.70;105998;1276;97936;-67
2022/10/06 01:45:55;;;;;;;9.30;3.50;;;;;;;12.16;63.67;99658.27;106062;1276;112134;-66
2022/10/06 01:48:23;;;;;;;;;;;;;;;12.15;63.70;99665.83;106045;1275;99013;-66
2022/10/06 01:50:53;;;;;;;11.10;3.80;;;;;;;12.12;63.85;99666.02;106017;1274;108400;-67
2022/10/06 01:53:22;;;;;;;9.20;3.80;;;;;;;12.12;63.79;99664.61;106087;1277;99209;-67
2022/10/06 01:55:49;;;;;;;8.20;3.30;;;;;;;12.12;63.77;99667.65;105991;1276;99100;-68
2022/10/06 01:58:17;;;;;;;14.50;4.30;;;;;;;12.12;63.83;99669.08;105950;1276;113433;-71
2022/10/06 02:00:45;;;;;;;9.30;3.60;;;;;;;12.11;63.77;99675.40;105990;1274;99244;-71
2022/10/06 02:03:13;;;;;;;9.70;4.20;;;;;;;12.10;63.75;99676.33;105973;1274;107779;-68
2022/10/06 02:05:42;;;;;;;11.10;3.50;;;;;;;12.09;63.81;99676.04;105994;1274;96648;-68
2022/10/06 02:08:10;;;;;;;7.80;3.40;;;;;;;12.06;63.89;99682.42;106025;1274;96628;-67
2022/10/06 02:10:38;;;;;;;9.00;3.30;;;;;;;12.05;63.86;99685.49;106089;1274;113291;-66
2022/10/06 02:13:08;;;;;;;11.20;3.80;;;;;;;12.05;63.86;99683.22;106055;1274;99313;-67
2022/10/06 02:15:38;;;;;;;7.50;3.50;;;;;;;12.05;63.78;99680.20;106009;1275;109167;-67
2022/10/06 02:18:07;;;;;;;10.20;3.90;;;;;;;12.05;63.85;99683.58;105973;1275;99314;-67
2022/10/06 02:20:36;;;;;;;11.00;3.60;;;;;;;12.03;63.88;99682.48;105987;1275;99336;-67
2022/10/06 02:23:05;;;;;;;12.60;4.00;;;;;;;12.02;63.87;99681.33;106007;1274;113162;-67
2022/10/06 02:25:33;;;;;;;9.70;3.70;;;;;;;12.01;63.82;99686.71;105987;1274;96589;-67
2022/10/06 02:28:00;;;;;;;9.30;3.30;;;;;;;12.00;63.90;99688.73;105958;1276;108370;-69
2022/10/06 02:30:29;;;;;;;8.30;3.50;;;;;;;11.99;63.86;99689.65;106076;1275;99227;-68
2022/10/06 02:32:58;;;;;;;9.50;3.60;;;;;;;11.98;63.86;99689.59;106014;1275;99137;-67
2022/10/06 02:35:25;;;;;;;7.30;3.70;;;;;;;11.95;64.04;99689.57;106016;1275;113459;-67
2022/10/06 02:37:53;;;;;;;9.30;4.00;;;;;;;11.95;63.97;99689.94;106095;1274;99221;-67
2022/10/06 02:40:21;;;;;;;8.50;3.70;;;;;;;11.94;63.91;99692.65;106011;1274;108373;-67
2022/10/06 02:42:51;;;;;;;8.40;3.20;;;;;;;11.93;63.91;99693.48;106038;1275;99229;-65
2022/10/06 02:45:21;;;;;;;10.40;4.10;;;;;;;11.90;64.00;99689.16;105994;1274;99252;-68
2022/10/06 02:47:49;;;;;;;9.80;3.10;;;;;;;11.89;63.91;99689.80;106002;1275;113454;-67
2022/10/06 02:50:17;;;;;;;10.20;3.40;;;;;;;11.86;63.96;99698.68;106042;1274;99232;-68
2022/10/06 02:52:46;;;;;;;9.80;3.50;;;;;;;11.85;64.02;99694.50;106087;1274;108143;-71
2022/10/06 02:55:14;;;;;;;6.60;3.40;;;;;;;11.84;63.97;99696.17;106083;1274;99232;-68
2022/10/06 02:57:42;;;;;;;14.40;4.90;;;;;;;11.82;63.95;99692.41;106063;1274;99223;-68
2022/10/06 03:00:11;;;;;;;7.30;3.40;;;;;;;11.80;64.09;99693.96;106051;1274;113511;-68
2022/10/06 03:02:39;;;;;;;10.50;3.80;;;;;;;11.78;64.13;99697.31;106051;1274;99257;-66
2022/10/06 03:05:08;;;;;;;10.10;3.50;;;;;;;11.76;64.15;99697.94;106052;1274;108401;-67
2022/10/06 03:07:36;;;;;;;11.10;4.00;;;;;;;11.75;64.08;99696.61;105986;1275;99210;-67
2022/10/06 03:10:07;;;;;;;9.10;3.70;;;;;;;11.73;64.17;99694.92;106060;1276;99289;-66
2022/10/06 03:12:35;;;;;;;9.70;4.00;;;;;;;11.73;64.15;99699.39;106022;1275;113387;-67
2022/10/06 03:15:06;;;;;;;8.20;3.80;;;;;;;11.71;64.16;99705.77;106117;1275;99299;-65
2022/10/06 03:17:33;;;;;;;13.40;3.90;;;;;;;11.69;64.11;99702.86;106108;1275;107713;-68
2022/10/06 03:20:01;;;;;;;12.30;4.10;;;;;;;11.67;64.17;99708.70;105998;1275;99830;-67
2022/10/06 03:22:29;;;;;;;8.40;3.70;;;;;;;11.66;64.08;99712.50;105968;1275;99216;-65
2022/10/06 03:24:57;;;;;;;12.20;3.70;;;;;;;11.64;64.19;99717.92;106051;1275;113611;-67
2022/10/06 03:27:26;;;;;;;8.30;3.80;;;;;;;11.63;64.21;99716.02;106007;1274;99318;-67
2022/10/06 03:29:54;;;;;;;12.20;4.10;;;;;;;11.62;64.30;99715.23;106094;1274;107281;-69
2022/10/06 03:32:22;;;;;;;8.80;3.90;;;;;;;11.61;64.26;99716.39;106056;1274;99300;-68
2022/10/06 03:34:52;;;;;;;8.10;3.80;;;;;;;11.59;64.17;99716.13;106056;1274;99313;-67
2022/10/06 03:37:21;;;;;;;8.60;4.00;;;;;;;11.57;64.33;99718.58;105996;1274;113413;-68
2022/10/06 03:39:50;;;;;;;6.90;3.70;;;;;;;11.56;64.30;99721.50;106082;1274;99376;-68
2022/10/06 03:42:19;;;;;;;13.40;4.30;;;;;;;11.55;64.29;99721.91;105928;1277;108376;-68
2022/10/06 03:44:47;;;;;;;7.10;3.80;;;;;;;11.54;64.39;99724.30;105992;1276;97417;-67
2022/10/06 03:47:15;;;;;;;7.90;3.60;;;;;;;11.54;64.35;99728.17;106046;1276;97645;-67
2022/10/06 03:49:46;;;;;;;8.60;3.70;;;;;;;11.54;64.44;99728.90;106025;1275;113338;-67
2022/10/06 03:52:15;;;;;;;13.40;4.50;;;;;;;11.53;64.39;99728.10;105979;1275;99128;-68
2022/10/06 03:54:44;;;;;;;12.50;4.10;;;;;;;11.51;64.46;99726.59;105893;1276;143774;-70
2022/10/06 03:57:14;;;;;;;11.30;4.10;;;;;;;11.52;64.49;99727.61;105995;1275;99357;-68
2022/10/06 03:59:44;;;;;;;10.50;4.00;;;;;;;11.52;64.61;99728.66;106104;1275;99197;-66
2022/10/06 04:02:12;;;;;;;15.80;3.90;;;;;;;11.53;64.62;99733.39;105981;1275;113266;-67
2022/10/06 04:04:41;;;;;;;9.50;4.00;;;;;;;11.54;64.59;99732.25;106050;1275;99238;-67
2022/10/06 04:07:10;;;;;;;9.80;4.30;;;;;;;11.56;64.66;99730.39;106049;1274;107287;-69
2022/10/06 04:09:39;;;;;;;12.10;4.20;;;;;;;11.56;64.64;99726.63;105957;1275;99224;-69
2022/10/06 04:12:07;;;;;;;13.50;4.20;;;;;;;11.56;64.59;99725.60;106068;1275;99362;-68
2022/10/06 04:14:34;;;;;;;13.40;4.40;;;;;;;11.56;64.74;99728.97;106059;1275;114005;-67
2022/10/06 04:17:02;;;;;;;10.10;4.10;;;;;;;11.57;64.72;99734.77;106171;1274;99349;-68
2022/10/06 04:19:31;;;;;;;9.80;4.10;;;;;;;11.57;64.68;99734.59;106093;1274;108484;-68
2022/10/06 04:21:59;;;;;;;18.70;4.80;;;;;;;11.57;64.82;99741.49;106012;1275;99218;-65
2022/10/06 04:24:28;;;;;;;10.90;4.20;;;;;;;11.58;64.71;99741.40;106072;1275;99201;-67
2022/10/06 04:27:26;;;;;;;15.20;4.40;;;;;;;11.59;64.74;99740.27;106089;1274;114074;-67
2022/10/06 04:29:44;;;;;;;12.20;4.40;;;;;;;11.60;64.84;99736.70;106032;1276;99327;-68
2022/10/06 04:32:14;;;;;;;8.30;4.10;;;;;;;11.60;64.87;99738.60;105986;1276;108392;-68
2022/10/06 04:34:43;;;;;;;11.80;4.10;;;;;;;11.60;64.79;99745.02;105982;1274;99228;-66
2022/10/06 04:37:11;;;;;;;11.30;4.40;;;;;;;11.59;64.81;99746.50;105946;1275;96662;-68
2022/10/06 04:39:39;;;;;;;7.90;4.10;;;;;;;11.59;64.83;99749.55;105897;1275;113379;-68
2022/10/06 04:42:09;;;;;;;12.60;4.50;;;;;;;11.59;64.91;99748.98;105929;1277;97802;-66
2022/10/06 04:44:37;;;;;;;10.60;4.40;;;;;;;11.58;64.88;99750.28;105936;1274;109737;-67
2022/10/06 04:47:06;;;;;;;11.50;4.40;;;;;;;11.58;64.82;99750.31;106006;1276;97752;-69
2022/10/06 04:49:34;;;;;;;13.70;4.90;;;;;;;11.58;64.87;99746.58;106000;1276;96537;-69
2022/10/06 04:52:03;;;;;;;12.50;4.20;;;;;;;11.58;64.84;99750.51;106025;1276;113399;-70
2022/10/06 04:54:32;;;;;;;9.40;4.00;;;;;;;11.56;64.91;99753.98;106014;1276;98036;-68
2022/10/06 04:57:01;;;;;;;11.80;4.10;;;;;;;11.57;64.92;99750.91;106073;1277;108390;-66
2022/10/06 05:02:19;;;;;;;11.80;4.70;;;;;;;11.57;65.06;99756.42;105977;1275;99320;-68
2022/10/06 05:04:48;;;;;;;13.20;4.40;;;;;;;11.56;65.01;99758.10;105975;1275;113178;-65
2022/10/06 05:07:16;;;;;;;11.50;4.40;;;;;;;11.56;65.07;99749.71;105951;1277;97988;-67
2022/10/06 05:09:44;;;;;;;8.20;4.40;;;;;;;11.58;64.98;99751.91;105962;1274;108436;-66
2022/10/06 05:12:12;;;;;;;13.60;4.60;;;;;;;11.59;64.91;99756.80;106016;1274;99264;-67
2022/10/06 05:14:40;;;;;;;12.50;4.80;;;;;;;11.59;65.11;99756.63;105960;1274;98240;-68
2022/10/06 05:17:08;;;;;;;11.10;4.00;;;;;;;11.61;65.30;99759.70;106465;1274;113550;-65
2022/10/06 05:19:37;;;;;;;15.00;4.90;;;;;;;11.62;65.24;99766.35;105987;1274;99244;-65
2022/10/06 05:22:05;;;;;;;13.30;4.60;;;;;;;11.62;65.13;99768.28;106450;1276;108324;-66
2022/10/06 05:24:34;;;;;;;12.50;4.60;;;;;;;11.64;65.27;99764.49;107856;1274;97174;-67
2022/10/06 05:27:02;;;;;;;14.40;4.80;;;;;;;11.66;65.28;99765.92;107869;1274;97103;-67
2022/10/06 05:29:30;;;;;;;10.90;4.00;;;;;;;11.69;65.15;99773.55;107896;1274;112696;-66
2022/10/06 05:31:58;;;;;;;12.00;4.60;;;;;;;11.71;65.26;99776.63;107871;1274;97175;-65
2022/10/06 05:34:26;;;;;;;14.70;4.90;;;;;;;11.73;65.23;99774.54;107871;1274;107737;-65
2022/10/06 05:36:54;;;;;;;10.40;4.20;;;;;;;11.76;65.18;99777.73;106773;1274;96907;-66
2022/10/06 05:39:21;;;;;;;12.40;4.40;;;;;;;11.78;65.18;99776.34;105978;1275;97694;-66
2022/10/06 05:41:51;;;;;;;12.90;4.60;;;;;;;11.81;65.28;99775.80;105942;1275;113415;-68
2022/10/06 05:44:21;;;;;;;12.90;4.60;;;;;;;11.83;65.23;99777.41;105967;1275;99224;-67
2022/10/06 05:46:50;;;;;;;12.10;4.60;;;;;;;11.85;65.26;99778.39;106040;1276;108583;-68
2022/10/06 05:49:22;;;;;;;13.40;4.60;;;;;;;11.86;65.41;99779.36;106051;1274;97707;-67
2022/10/06 05:51:53;;;;;;;11.90;4.70;;;;;;;11.87;65.45;99788.35;106183;1274;99216;-64
2022/10/06 05:54:21;;;;;;;13.00;4.80;;;;;;;11.88;65.45;99784.36;106084;1274;112632;-68
2022/10/06 05:56:51;;;;;;;10.40;4.40;;;;;;;11.90;65.53;99787.09;106145;1274;97849;-65
2022/10/06 05:59:19;;;;;;;12.10;4.30;;;;;;;11.92;65.53;99792.65;106076;1273;109315;-67
2022/10/06 06:01:47;;;;;;;14.80;4.80;;;;;;;11.95;65.43;99800.30;106033;1274;99255;-66
2022/10/06 06:04:16;;;;;;;9.10;4.30;;;;;;;11.98;65.55;99805.27;105997;1274;99222;-67
2022/10/06 06:06:47;;;;;;;13.30;4.70;;;;;;;12.00;65.45;99807.80;105964;1274;113461;-67
2022/10/06 06:09:20;;;;;;;15.10;4.80;;;;;;;12.04;65.66;99812.70;106034;1274;99077;-67
2022/10/06 06:11:53;;;;;;;9.90;4.50;;;;;;;12.09;65.48;99814.88;105965;1276;107712;-70
2022/10/06 06:17:10;;;;;;;10.70;4.40;;;;;;;12.20;65.64;99824.61;105971;1274;99303;-66
2022/10/06 06:19:40;;;;;;;10.80;4.20;;;;;;;12.25;65.60;99829.08;106115;1274;113284;-67
2022/10/06 06:22:09;;;;;;;9.60;4.30;;;;;;;12.30;65.64;99827.27;106050;1275;99295;-68
2022/10/06 06:24:37;;;;;;;10.30;4.80;;;;;;;12.35;65.63;99828.95;106016;1277;108286;-66
2022/10/06 06:27:05;;;;;;;11.90;4.40;;;;;;;12.38;65.66;99833.00;107292;1274;96939;-66
2022/10/06 06:29:34;;;;;;;11.70;4.80;;;;;;;12.42;65.64;99836.68;106382;1275;99220;-68
2022/10/06 06:32:03;;;;;;;10.50;5.00;;;;;;;12.45;65.67;99840.02;105995;1274;113292;-67
2022/10/06 06:34:31;;;;;;;10.20;4.40;;;;;;;12.48;65.75;99840.53;106000;1275;99255;-68
2022/10/06 06:37:00;;;;;;;13.30;5.10;;;;;;;12.51;65.74;99845.82;105980;1275;108531;-67
2022/10/06 06:39:36;;;;;;;10.50;4.50;;;;;;;12.55;65.79;99848.80;106038;1274;97014;-69
2022/10/06 06:42:07;;;;;;;8.50;4.30;;;;;;;12.57;65.71;99850.56;106012;1277;99237;-63
2022/10/06 06:44:36;;;;;;;11.90;4.60;;;;;;;12.60;65.72;99848.06;105882;1275;113402;-67
2022/10/06 06:47:03;;;;;;;10.40;4.40;;;;;;;12.62;65.74;99844.89;107860;1274;97766;-67
2022/10/06 06:49:31;;;;;;;11.40;4.30;;;;;;;12.65;65.78;99857.48;107819;1274;107545;-66
2022/10/06 06:52:01;;;;;;;9.70;4.40;;;;;;;12.70;65.74;99857.19;106414;1274;99310;-65
2022/10/06 06:54:31;;;;;;;9.40;4.10;;;;;;;12.74;65.78;99862.08;105903;1274;99226;-67
2022/10/06 06:56:59;;;;;;;11.70;4.20;;;;;;;12.77;65.74;99862.91;105865;1276;113381;-67
2022/10/06 06:59:32;;;;;;;14.80;4.80;;;;;;;12.81;65.68;99866.41;106012;1276;99237;-67
2022/10/06 07:02:02;;;;;;;11.20;4.20;;;;;;;12.85;65.77;99871.42;105962;1276;108063;-67
2022/10/06 07:04:31;;;;;;;12.10;4.50;;;;;;;12.90;65.83;99870.56;105943;1277;97539;-67
2022/10/06 07:07:00;;;;;;;10.10;4.40;;;;;;;12.95;65.80;99870.76;106024;1276;99200;-67
2022/10/06 07:09:29;;;;;;;15.10;4.30;;;;;;;12.99;65.84;99870.48;105987;1275;111939;-67
2022/10/06 07:11:56;;;;;;;17.20;4.80;;;;;;;13.04;65.85;99870.30;106136;1274;99302;-67
2022/10/06 07:14:24;;;;;;;11.10;4.70;;;;;;;13.09;65.79;99866.21;106113;1274;108369;-67
2022/10/06 07:25:23;;;;;;;7.30;3.90;;;;;;;13.37;65.91;99864.81;106008;1274;99335;-66
2022/10/06 07:27:55;;;;;;;12.90;4.40;;;;;;;13.44;66.00;99866.66;105973;1276;108331;-69
2022/10/06 07:30:27;;;;;;;18.60;6.40;;;;;;;13.51;65.92;99869.52;106091;1276;99275;-67
2022/10/06 07:32:55;;;;;;;54.00;21.10;;;;;;;13.59;65.91;99868.25;106075;1276;99236;-68
2022/10/06 07:35:24;;;;;;;46.60;20.60;;;;;;;13.67;65.82;99866.81;105964;1276;113342;-69
2022/10/06 07:37:52;;;;;;;28.80;11.40;;;;;;;13.75;65.88;99867.12;105977;1276;96603;-68
2022/10/06 07:40:22;;;;;;;26.90;9.40;;;;;;;13.83;65.90;99872.02;105940;1276;108416;-67
2022/10/06 07:42:51;;;;;;;24.10;7.80;;;;;;;13.91;65.97;99871.81;105972;1275;99135;-68
2022/10/06 07:45:39;;;;;;;26.70;8.30;;;;;;;13.99;65.89;99871.05;105988;1274;99236;-67
2022/10/06 07:48:14;;;;;;;20.00;7.10;;;;;;;14.08;65.92;99872.55;105979;1275;113877;-68
2022/10/06 07:50:47;;;;;;;27.00;9.50;;;;;;;14.16;65.91;99874.98;105980;1275;99223;-67
2022/10/06 07:53:17;;;;;;;21.10;7.30;;;;;;;14.24;65.93;99883.08;106000;1274;107902;-68
2022/10/06 07:55:48;;;;;;;22.30;7.30;;;;;;;14.33;65.87;99883.55;106015;1274;99226;-68
2022/10/06 07:58:22;;;;;;;16.90;6.20;;;;;;;14.41;65.91;99883.10;106024;1275;96724;-68
2022/10/06 08:00:52;;;;;;;14.60;5.90;;;;;;;14.49;65.85;99885.89;106017;1274;112744;-68
2022/10/06 08:03:21;;;;;;;13.90;4.90;;;;;;;14.57;65.87;99889.05;105991;1275;99331;-68
2022/10/06 08:05:57;;;;;;;15.50;5.20;;;;;;;14.65;65.91;99892.92;105950;1277;110602;-68
2022/10/06 08:08:29;;;;;;;11.50;4.70;;;;;;;14.71;65.87;99896.91;105982;1277;99250;-68
2022/10/06 08:10:59;;;;;;;10.60;4.40;;;;;;;14.80;65.89;99902.14;106030;1274;99318;-67
2022/10/06 08:13:33;;;;;;;11.50;4.80;;;;;;;14.88;65.82;99900.27;106002;1274;113474;-67
2022/10/06 08:16:05;;;;;;;9.40;3.70;;;;;;;14.96;65.85;99902.86;106021;1274;96651;-67
2022/10/06 08:18:33;;;;;;;12.80;4.40;;;;;;;15.05;65.90;99900.23;106072;1275;107780;-65
2022/10/06 08:21:28;;;;;;;11.00;4.60;;;;;;;15.14;65.71;99905.19;106139;1274;99301;-67
2022/10/06 08:23:59;;;;;;;11.00;4.60;;;;;;;15.25;65.85;99908.63;106127;1274;99252;-67
2022/10/06 08:26:30;;;;;;;9.20;4.10;;;;;;;15.38;65.78;99909.27;106142;1274;112758;-67
2022/10/06 08:29:01;;;;;;;12.00;4.70;;;;;;;15.75;65.33;99913.46;106032;1274;96574;-68
2022/10/06 08:31:31;;;;;;;11.80;4.90;;;;;;;16.70;64.18;99914.07;106054;1274;107806;-67
2022/10/06 08:34:01;;;;;;;19.40;6.80;;;;;;;17.53;64.09;99910.71;106066;1275;96621;-68
2022/10/06 08:36:29;;;;;;;11.50;4.80;;;;;;;18.29;64.28;99909.96;106034;1277;99226;-67
2022/10/06 08:39:00;;;;;;;8.10;4.00;;;;;;;18.92;64.37;99902.86;106042;1277;113868;-68
2022/10/06 08:41:31;;;;;;;10.00;3.70;;;;;;;19.46;64.44;99907.83;106030;1278;96713;-67
2022/10/06 08:44:19;;;;;;;7.90;3.80;;;;;;;19.87;64.64;99911.05;105979;1274;108263;-69
2022/10/06 08:47:12;;;;;;;7.80;4.00;;;;;;;20.26;64.70;99913.00;105966;1274;99327;-68
2022/10/06 08:49:45;;;;;;;13.00;3.80;;;;;;;20.57;64.78;99920.05;105954;1277;99263;-66
2022/10/06 08:52:51;;;;;;;8.40;3.80;;;;;;;20.82;64.87;99914.63;106024;1274;113469;-68
2022/10/06 08:55:54;;;;;;;13.20;3.80;;;;;;;21.06;64.60;99910.73;106053;1274;99326;-69
2022/10/06 08:58:22;;;;;;;8.50;3.90;;;;;;;21.23;64.42;99914.38;106107;1274;107749;-69
2022/10/06 09:00:55;;;;;;;7.30;3.60;;;;;;;21.38;64.78;99912.13;106103;1274;97655;-69
2022/10/06 09:03:28;;;;;;;11.20;3.30;;;;;;;21.57;64.33;99914.49;106025;1274;96539;-68
2022/10/06 09:06:12;;;;;;;7.50;3.50;;;;;;;21.74;64.45;99910.77;105989;1274;112553;-68
2022/10/06 09:08:52;;;;;;;9.90;4.00;;;;;;;21.90;63.97;99914.98;105997;1274;99195;-68
2022/10/06 09:11:42;;;;;;;9.30;3.90;;;;;;;22.12;63.88;99918.66;106010;1277;108451;-68
2022/10/06 09:14:36;;;;;;;12.80;5.40;;;;;;;22.36;63.87;99917.34;106099;1277;99399;-68
2022/10/06 09:17:13;;;;;;;7.40;3.90;;;;;;;22.62;64.07;99924.47;106123;1277;96553;-67
2022/10/06 09:19:57;;;;;;;9.20;4.00;;;;;;;22.88;63.88;99921.77;106017;1277;112740;-67
2022/10/06 09:22:31;;;;;;;7.60;3.70;;;;;;;23.17;63.61;99922.00;106041;1274;99256;-68
2022/10/06 09:25:18;;;;;;;7.00;3.50;;;;;;;23.47;63.33;99924.83;106120;1277;108418;-68
2022/10/06 09:28:02;;;;;;;7.30;3.60;;;;;;;23.73;63.16;99921.13;106045;1277;99256;-67
2022/10/06 09:30:31;;;;;;;6.20;3.60;;;;;;;23.91;63.00;99929.02;105991;1277;96683;-67
2022/10/06 09:33:04;;;;;;;6.30;3.60;;;;;;;23.97;62.88;99927.29;105977;1277;113409;-67
2022/10/06 09:35:32;;;;;;;7.50;3.80;;;;;;;24.02;62.64;99930.77;105998;1277;99106;-68
2022/10/06 09:38:04;;;;;;;7.40;3.70;;;;;;;24.04;62.43;99929.89;105985;1274;108783;-67
2022/10/06 09:40:53;;;;;;;7.60;3.80;;;;;;;24.05;62.23;99935.79;105993;1274;99943;-68
2022/10/06 09:43:28;;;;;;;9.70;4.30;;;;;;;24.04;61.97;99939.38;106034;1275;99374;-68
2022/10/06 09:46:27;;;;;;;12.80;5.40;;;;;;;23.93;61.86;99947.08;105993;1277;112742;-66
2022/10/06 09:49:17;;;;;;;8.00;3.80;;;;;;;23.71;61.51;99953.39;105996;1277;96699;-67
2022/10/06 09:52:17;;;;;;;11.80;4.50;;;;;;;23.50;61.31;99952.14;106006;1277;108453;-67
2022/10/06 09:55:21;;;;;;;11.90;3.80;;;;;;;23.28;61.10;99957.20;106005;1277;99359;-66
2022/10/06 09:57:55;;;;;;;8.90;4.00;;;;;;;23.01;60.88;99963.27;106176;1277;99223;-68
2022/10/06 10:00:37;;;;;;;10.80;3.60;;;;;;;22.78;60.60;99972.23;106027;1277;111989;-67
2022/10/06 10:03:10;;;;;;;10.40;3.90;;;;;;;22.55;60.50;99971.00;106027;1277;96734;-68
2022/10/06 10:05:46;;;;;;;8.10;3.90;;;;;;;22.33;60.41;99976.17;106027;1276;107768;-67
2022/10/06 10:08:22;;;;;;;9.20;4.00;;;;;;;22.16;60.39;99978.30;106017;1277;96694;-68
2022/10/06 10:13:59;;;;;;;9.00;3.60;;;;;;;21.72;60.09;99983.89;106089;1277;113229;-68
2022/10/06 10:16:34;;;;;;;6.30;3.90;;;;;;;21.50;59.99;99982.02;106048;1277;97543;-68
2022/10/06 10:19:04;;;;;;;12.70;4.20;;;;;;;21.32;59.88;99981.81;106126;1277;107895;-70
2022/10/06 10:21:35;;;;;;;11.70;4.70;;;;;;;21.25;59.80;99982.88;106125;1274;99259;-69
2022/10/06 10:24:14;;;;;;;10.70;4.70;;;;;;;21.17;59.59;99983.34;106012;1274;96718;-69
2022/10/06 10:27:05;;;;;;;8.40;4.30;;;;;;;21.02;59.51;99987.98;105999;1274;113379;-69
2022/10/06 10:29:44;;;;;;;7.70;3.80;;;;;;;20.90;59.25;99986.65;106020;1275;99237;-70
2022/10/06 10:32:16;;;;;;;8.50;3.80;;;;;;;20.83;59.33;99985.38;106143;1276;107735;-68
2022/10/06 10:35:03;;;;;;;8.70;3.90;;;;;;;20.79;59.44;99984.70;106137;1276;99319;-67
2022/10/06 10:37:44;;;;;;;8.00;3.90;;;;;;;20.80;59.30;99983.48;106078;1276;99275;-70
2022/10/06 10:40:28;;;;;;;8.50;4.10;;;;;;;20.83;59.17;99981.41;105995;1277;114150;-67
2022/10/06 10:43:11;;;;;;;11.30;4.30;;;;;;;20.84;59.18;99985.30;105983;1277;96651;-69
2022/10/06 10:45:48;;;;;;;9.40;4.00;;;;;;;20.81;59.17;99974.60;106021;1274;107306;-68
2022/10/06 10:49:00;;;;;;;11.20;4.50;;;;;;;20.79;59.09;99978.17;106055;1274;96601;-67
2022/10/06 10:51:36;;;;;;;9.60;4.00;;;;;;;20.76;58.77;99979.23;106007;1274;99824;-67
2022/10/06 10:54:19;;;;;;;9.40;4.40;;;;;;;20.69;58.77;99979.69;105995;1274;111732;-69
2022/10/06 10:56:51;;;;;;;;;;;;;;;20.64;58.85;99979.85;105998;1274;99219;-69
2022/10/06 10:59:23;;;;;;;5.70;3.40;;;;;;;20.52;58.60;99976.95;105996;1274;107739;-67
2022/10/06 11:02:01;;;;;;;7.50;3.30;;;;;;;20.43;58.53;99979.60;105988;1276;99234;-68
2022/10/06 11:04:30;;;;;;;7.70;3.40;;;;;;;20.36;58.49;99974.36;106018;1274;99409;-68
2022/10/06 11:07:28;;;;;;;8.90;3.60;;;;;;;20.27;58.30;99977.92;106005;1274;113663;-68
2022/10/06 11:10:17;;;;;;;11.60;3.60;;;;;;;20.27;58.25;99976.02;106079;1274;99134;-68
2022/10/06 11:13:04;;;;;;;11.20;4.10;;;;;;;20.32;58.51;99976.19;106009;1274;108399;-67
2022/10/06 11:15:50;;;;;;;10.20;4.00;;;;;;;20.37;58.32;99977.87;105965;1274;96640;-67
2022/10/06 11:18:40;;;;;;;11.90;4.30;;;;;;;20.36;58.23;99972.71;105976;1274;99258;-68
2022/10/06 11:21:45;;;;;;;9.20;3.50;;;;;;;20.30;57.98;99974.92;105995;1274;113177;-67
2022/10/06 11:24:41;;;;;;;8.70;3.60;;;;;;;20.21;58.00;99978.73;105920;1274;97759;-67
2022/10/06 11:27:22;;;;;;;7.30;3.50;;;;;;;20.11;57.91;99977.89;105981;1274;108415;-69
2022/10/06 11:30:25;;;;;;;7.50;3.80;;;;;;;20.08;58.06;99976.04;105998;1274;97066;-68
2022/10/06 11:33:29;;;;;;;8.80;3.50;;;;;;;20.08;57.86;99974.75;106016;1274;99333;-69
2022/10/06 11:36:01;;;;;;;9.50;3.30;;;;;;;20.12;57.97;99976.95;106001;1274;113434;-68
2022/10/06 11:38:41;;;;;;;11.50;4.00;;;;;;;20.16;57.88;99977.38;106103;1274;99052;-66
2022/10/06 11:41:20;;;;;;;10.90;4.20;;;;;;;20.22;57.91;99983.64;106004;1274;107125;-67
2022/10/06 11:43:59;;;;;;;9.10;4.00;;;;;;;20.26;57.89;99982.55;106053;1274;96624;-66
2022/10/06 11:46:51;;;;;;;7.30;3.50;;;;;;;20.29;57.91;99982.41;106032;1274;97773;-67
2022/10/06 11:49:29;;;;;;;11.60;4.10;;;;;;;20.37;58.02;99974.08;105981;1274;113252;-66
2022/10/06 11:52:05;;;;;;;8.10;3.50;;;;;;;20.45;57.84;99979.05;106000;1274;96659;-65
2022/10/06 11:54:38;;;;;;;13.40;4.00;;;;;;;20.51;58.02;99976.05;106036;1274;107569;-64
2022/10/06 11:57:22;;;;;;;11.60;4.20;;;;;;;20.56;57.96;99974.91;106060;1274;96591;-65
2022/10/06 12:00:03;;;;;;;6.10;3.70;;;;;;;20.60;57.75;99977.42;106107;1274;99222;-66
2022/10/06 12:02:32;;;;;;;10.20;4.10;;;;;;;20.61;57.72;99981.77;105996;1274;112330;-68